首页
METAR-TAF:

METAR-TAF

机场 :

McGuire Air Force Base

Wrightstown, 新泽西州, 美国

纬度: 40-01N, 经度: 074-36W, 海拔: 41米

当前天气观测

该预报发布于10分钟前的06:56 UTC
静风
温度 24°C
湿度 94%
气压 1015 hPa
能見度: 16.1公里
少量云层高于13000英尺

METAR: KWRI 170656Z AUTO 00000KT 10SM FEW130 24/23 A2997 RMK AO2 SLP147 T02400231 $

时间: 03:06 (07:06 UTC)

预报

该预报发布于5小时和6分钟前的02:00 UTC
预报有效从17日的 02点(UTC)到 18日的 08点(UTC)
风速8节,风向西转西南
能见度10公里或以上
少量云层高于15000英尺
短暂存在
从 17日的 02点(UTC)到 17日的 04点(UTC)
能見度: 6000
小阵雨
成为
从 17日的 04点(UTC)到 17日的 05点(UTC)
风速5节,风向西转西南
能见度10公里或以上
少量云层高于5000英尺
多云层高于12000英尺
成为
从 17日的 14点(UTC)到 17日的 15点(UTC)
风速12节,风向西转西南
能见度10公里或以上
散云层高于5000英尺
多云层高于10000英尺
成为
从 17日的 22点(UTC)到 17日的 23点(UTC)
风速6节,风向南转西南
能見度: 6000
多云层高于4000英尺, 积雨云.
阴天层高于10000英尺
小阵雨, 附近有雷暴
短暂存在
从 17日的 23点(UTC)到 18日的 02点(UTC)
风速10节,风向西转西南,有时为20节阵风
能見度: 4800
阴天层高于3000英尺, 积雨云.
雷暴, 雨
成为
从 18日的 04点(UTC)到 18日的 05点(UTC)
风速6节,风向
能见度10公里或以上
多云层高于4000英尺

TAF: KWRI 170200Z 1702/1808 24008KT 9999 FEW150 QNH2999INS TEMPO 1702/1704 6000 -SHRA BECMG 1704/1705 24005KT 9999 FEW050 BKN120 QNH2998INS BECMG 1714/1715 24012KT 9999 SCT050 BKN100 QNH2987INS BECMG 1722/1723 21006KT 6000 -SHRA VCTS BKN040CB OVC100 QNH2984INS TEMPO 1723/1802 25010G20KT 4800 TSRA OVC030CB BECMG 1804/1805 18006KT 9999 NSW BKN040 QNH2982INS TX34/1720Z TN22/1710Z

超过4000个机场的气象观测和天气预报(METAR&TAF报告)。

可查询的气象台以黄色和红色小点在地图上表示。

将鼠标移到小点上方,可查看气象台名称。

然后点击查看天气观测和预报。

如需切换地图:点击带黑十字的绿色按钮放大地图;点击带横线的绿色按钮缩小地图;或者点击绿色箭头查看邻近地区的地图。


METAR-TAF: